BUC3CM EDDN-LDDU
Flight info
| Callsign | BUC3CM |
|---|---|
| Flight time | 1h 26m |
| Altitude | 33000 |
| Route | DKB N869 TEDGO L607 ELMEM N606 GIRIS DCT NIVAS DCT PEVAL DCT PUL DCT SPL DCT SIPAL L607 NERRA |
| Aircraft | MD82/M-SDFGIRWY/S |
Departure
| Time | 2026-04-28 13:07 |
|---|---|
| Airport | Nuremberg Airport (EDDN) |
Arrival
| Time | 2026-04-28 14:33 |
|---|---|
| Airport | Dubrovnik Ruđer Bošković Airport (LDDU) |
| Time | Latitude | Longitude | Altitude | Speed | Heading |
|---|---|---|---|---|---|
| 2026-04-28 12:18 | 49.49508 | 11.08047 | 1026 ft | 0 kts | 188° |
| 2026-04-28 12:55 | 49.49509 | 11.08047 | 1026 ft | 2 kts | 188° |
| 2026-04-28 12:55 | 49.49534 | 11.08053 | 1038 ft | 3 kts | 188° |
| 2026-04-28 12:56 | 49.49555 | 11.08061 | 1028 ft | 4 kts | 217° |
| 2026-04-28 12:56 | 49.49563 | 11.08080 | 1027 ft | 4 kts | 280° |
| 2026-04-28 12:56 | 49.49555 | 11.08118 | 1028 ft | 4 kts | 289° |
| 2026-04-28 12:56 | 49.49551 | 11.08140 | 1028 ft | 0 kts | 278° |
| 2026-04-28 13:00 | 49.49551 | 11.08139 | 1028 ft | 0 kts | 278° |
| 2026-04-28 13:00 | 49.49551 | 11.08133 | 1028 ft | 0 kts | 278° |
| 2026-04-28 13:00 | 49.49551 | 11.08132 | 1028 ft | 1 kts | 278° |
| 2026-04-28 13:01 | 49.49552 | 11.08127 | 1026 ft | 1 kts | 277° |
| 2026-04-28 13:01 | 49.49555 | 11.08090 | 1028 ft | 7 kts | 278° |
| 2026-04-28 13:01 | 49.49565 | 11.07977 | 1028 ft | 13 kts | 278° |
| 2026-04-28 13:01 | 49.49579 | 11.07834 | 1026 ft | 14 kts | 278° |
| 2026-04-28 13:02 | 49.49627 | 11.07770 | 1027 ft | 9 kts | 10° |
| 2026-04-28 13:02 | 49.49682 | 11.07737 | 1024 ft | 9 kts | 294° |
| 2026-04-28 13:02 | 49.49695 | 11.07632 | 1025 ft | 11 kts | 279° |
| 2026-04-28 13:02 | 49.49707 | 11.07508 | 1025 ft | 12 kts | 277° |
| 2026-04-28 13:03 | 49.49719 | 11.07372 | 1023 ft | 13 kts | 277° |
| 2026-04-28 13:03 | 49.49735 | 11.07223 | 1023 ft | 15 kts | 279° |
| 2026-04-28 13:03 | 49.49751 | 11.07064 | 1022 ft | 15 kts | 279° |
| 2026-04-28 13:03 | 49.49766 | 11.06894 | 1020 ft | 17 kts | 278° |
| 2026-04-28 13:04 | 49.49784 | 11.06716 | 1020 ft | 17 kts | 278° |
| 2026-04-28 13:04 | 49.49802 | 11.06541 | 1021 ft | 17 kts | 279° |
| 2026-04-28 13:04 | 49.49820 | 11.06359 | 1019 ft | 18 kts | 278° |
| 2026-04-28 13:04 | 49.49838 | 11.06170 | 1020 ft | 17 kts | 278° |
| 2026-04-28 13:05 | 49.49866 | 11.06000 | 1022 ft | 16 kts | 311° |
| 2026-04-28 13:05 | 49.49955 | 11.05934 | 1026 ft | 13 kts | 340° |
| 2026-04-28 13:05 | 49.50029 | 11.05933 | 1028 ft | 9 kts | 11° |
| 2026-04-28 13:05 | 49.50048 | 11.05993 | 1027 ft | 7 kts | 98° |
| 2026-04-28 13:06 | 49.50047 | 11.06004 | 1026 ft | 0 kts | 98° |
| 2026-04-28 13:06 | 49.50047 | 11.06010 | 1028 ft | 6 kts | 98° |
| 2026-04-28 13:06 | 49.50012 | 11.06362 | 1025 ft | 63 kts | 98° |
| 2026-04-28 13:06 | 49.49913 | 11.07366 | 1024 ft | 124 kts | 98° |
| 2026-04-28 13:07 | 49.49762 | 11.08937 | 1064 ft | 169 kts | 99° |
| 2026-04-28 13:07 | 49.49549 | 11.10819 | 1542 ft | 180 kts | 99° |
| 2026-04-28 13:07 | 49.49329 | 11.12658 | 2492 ft | 171 kts | 99° |
| 2026-04-28 13:07 | 49.49177 | 11.13829 | 3110 ft | 166 kts | 98° |
| 2026-04-28 13:08 | 49.48919 | 11.16120 | 3907 ft | 175 kts | 97° |
| 2026-04-28 13:08 | 49.48726 | 11.18036 | 4326 ft | 187 kts | 96° |
| 2026-04-28 13:08 | 49.48543 | 11.20102 | 4702 ft | 204 kts | 95° |
| 2026-04-28 13:08 | 49.48356 | 11.22320 | 5317 ft | 212 kts | 98° |
| 2026-04-28 13:09 | 49.47758 | 11.24573 | 5202 ft | 256 kts | 129° |
| 2026-04-28 13:09 | 49.46257 | 11.26106 | 5764 ft | 270 kts | 160° |
| 2026-04-28 13:09 | 49.44381 | 11.26342 | 6424 ft | 277 kts | 187° |
| 2026-04-28 13:09 | 49.42458 | 11.25738 | 6743 ft | 285 kts | 192° |
| 2026-04-28 13:10 | 49.40531 | 11.25099 | 6865 ft | 282 kts | 188° |
| 2026-04-28 13:10 | 49.38603 | 11.24583 | 6918 ft | 279 kts | 187° |
| 2026-04-28 13:10 | 49.36657 | 11.24147 | 7189 ft | 283 kts | 185° |
| 2026-04-28 13:10 | 49.34714 | 11.23754 | 7922 ft | 281 kts | 184° |
| 2026-04-28 13:11 | 49.32785 | 11.23236 | 8544 ft | 285 kts | 200° |
| 2026-04-28 13:11 | 49.31139 | 11.21555 | 9217 ft | 288 kts | 230° |
| 2026-04-28 13:11 | 49.30191 | 11.18874 | 9961 ft | 288 kts | 253° |
| 2026-04-28 13:11 | 49.29645 | 11.15866 | 10338 ft | 302 kts | 256° |
| 2026-04-28 13:12 | 49.29125 | 11.12641 | 10516 ft | 321 kts | 257° |
| 2026-04-28 13:12 | 49.28611 | 11.09224 | 10708 ft | 338 kts | 258° |
| 2026-04-28 13:12 | 49.28092 | 11.05638 | 10994 ft | 350 kts | 258° |
| 2026-04-28 13:12 | 49.27557 | 11.01993 | 11594 ft | 351 kts | 257° |
| 2026-04-28 13:13 | 49.26996 | 10.98359 | 12289 ft | 351 kts | 257° |
| 2026-04-28 13:13 | 49.26410 | 10.94732 | 12944 ft | 351 kts | 257° |
| 2026-04-28 13:13 | 49.25811 | 10.91076 | 13505 ft | 355 kts | 256° |
| 2026-04-28 13:13 | 49.25197 | 10.87400 | 14082 ft | 358 kts | 256° |
| 2026-04-28 13:14 | 49.24571 | 10.83708 | 14711 ft | 357 kts | 256° |
| 2026-04-28 13:14 | 49.23943 | 10.80026 | 15346 ft | 356 kts | 256° |
| 2026-04-28 13:14 | 49.23323 | 10.76368 | 15937 ft | 358 kts | 256° |
| 2026-04-28 13:14 | 49.22697 | 10.72653 | 16390 ft | 362 kts | 256° |
| 2026-04-28 13:15 | 49.22274 | 10.70170 | 16644 ft | 367 kts | 256° |
| 2026-04-28 13:15 | 49.21622 | 10.66395 | 17264 ft | 367 kts | 256° |
| 2026-04-28 13:15 | 49.20969 | 10.62613 | 17801 ft | 369 kts | 256° |
| 2026-04-28 13:15 | 49.20326 | 10.58815 | 18326 ft | 371 kts | 256° |
| 2026-04-28 13:16 | 49.19654 | 10.54980 | 18749 ft | 375 kts | 255° |
| 2026-04-28 13:16 | 49.18967 | 10.51117 | 19190 ft | 377 kts | 256° |
| 2026-04-28 13:16 | 49.18289 | 10.47240 | 19673 ft | 378 kts | 256° |
| 2026-04-28 13:16 | 49.17618 | 10.43335 | 20121 ft | 381 kts | 256° |
| 2026-04-28 13:17 | 49.16955 | 10.39456 | 20558 ft | 383 kts | 256° |
| 2026-04-28 13:17 | 49.16273 | 10.35459 | 21030 ft | 385 kts | 256° |
| 2026-04-28 13:17 | 49.15599 | 10.31495 | 21520 ft | 386 kts | 256° |
| 2026-04-28 13:17 | 49.14927 | 10.27566 | 21925 ft | 389 kts | 256° |
| 2026-04-28 13:18 | 49.14078 | 10.23638 | 22349 ft | 393 kts | 244° |
| 2026-04-28 13:18 | 49.12441 | 10.20284 | 22754 ft | 399 kts | 223° |
| 2026-04-28 13:18 | 49.10102 | 10.17958 | 23178 ft | 407 kts | 205° |
| 2026-04-28 13:18 | 49.07331 | 10.16913 | 23556 ft | 417 kts | 186° |
| 2026-04-28 13:19 | 49.04411 | 10.17264 | 23843 ft | 428 kts | 168° |
| 2026-04-28 13:19 | 49.01563 | 10.18714 | 24167 ft | 433 kts | 165° |
| 2026-04-28 13:19 | 48.98644 | 10.19811 | 24439 ft | 431 kts | 176° |
| 2026-04-28 13:19 | 48.95660 | 10.20060 | 24801 ft | 428 kts | 185° |
| 2026-04-28 13:20 | 48.92694 | 10.19844 | 25201 ft | 427 kts | 189° |
| 2026-04-28 13:20 | 48.89733 | 10.19400 | 25553 ft | 428 kts | 191° |
| 2026-04-28 13:20 | 48.86776 | 10.18833 | 25888 ft | 429 kts | 192° |
| 2026-04-28 13:20 | 48.83814 | 10.18215 | 26224 ft | 431 kts | 193° |
| 2026-04-28 13:21 | 48.80824 | 10.17588 | 26579 ft | 432 kts | 193° |
| 2026-04-28 13:21 | 48.77833 | 10.16974 | 26927 ft | 435 kts | 193° |
| 2026-04-28 13:21 | 48.74829 | 10.16378 | 27254 ft | 437 kts | 193° |
| 2026-04-28 13:21 | 48.71804 | 10.15799 | 27600 ft | 439 kts | 193° |
| 2026-04-28 13:22 | 48.68773 | 10.15236 | 27983 ft | 439 kts | 193° |
| 2026-04-28 13:22 | 48.65732 | 10.14680 | 28332 ft | 441 kts | 193° |
| 2026-04-28 13:22 | 48.62716 | 10.14129 | 28646 ft | 442 kts | 193° |
| 2026-04-28 13:22 | 48.59677 | 10.13578 | 29268 ft | 436 kts | 194° |
| 2026-04-28 13:23 | 48.56682 | 10.13036 | 29866 ft | 432 kts | 194° |
| 2026-04-28 13:23 | 48.53707 | 10.12490 | 30310 ft | 430 kts | 195° |
| 2026-04-28 13:23 | 48.50733 | 10.11933 | 30622 ft | 430 kts | 195° |
| 2026-04-28 13:23 | 48.47763 | 10.11372 | 30905 ft | 430 kts | 195° |
| 2026-04-28 13:24 | 48.44791 | 10.10812 | 31188 ft | 430 kts | 195° |
| 2026-04-28 13:24 | 48.41811 | 10.10256 | 31503 ft | 430 kts | 195° |
| 2026-04-28 13:24 | 48.38848 | 10.09708 | 31840 ft | 429 kts | 195° |
| 2026-04-28 13:24 | 48.35888 | 10.09164 | 32167 ft | 427 kts | 195° |
| 2026-04-28 13:25 | 48.32941 | 10.08624 | 32456 ft | 427 kts | 195° |
| 2026-04-28 13:25 | 48.30036 | 10.08091 | 32743 ft | 426 kts | 195° |
| 2026-04-28 13:25 | 48.27085 | 10.07550 | 32930 ft | 428 kts | 195° |
| 2026-04-28 13:26 | 48.21142 | 10.06458 | 33048 ft | 430 kts | 195° |
| 2026-04-28 13:26 | 48.15148 | 10.05350 | 33108 ft | 439 kts | 195° |
| 2026-04-28 13:27 | 48.09296 | 10.04278 | 33164 ft | 448 kts | 194° |
| 2026-04-28 13:27 | 48.03045 | 10.03146 | 33173 ft | 455 kts | 194° |
| 2026-04-28 13:28 | 47.96766 | 10.02017 | 33165 ft | 453 kts | 194° |
| 2026-04-28 13:28 | 47.90506 | 10.00892 | 33172 ft | 452 kts | 194° |
| 2026-04-28 13:29 | 47.84182 | 10.00639 | 33178 ft | 471 kts | 173° |
| 2026-04-28 13:29 | 47.81096 | 10.02323 | 33176 ft | 488 kts | 156° |
| 2026-04-28 13:29 | 47.78260 | 10.05194 | 33145 ft | 498 kts | 147° |
| 2026-04-28 13:30 | 47.72904 | 10.11715 | 33162 ft | 496 kts | 146° |
| 2026-04-28 13:30 | 47.67499 | 10.18034 | 33176 ft | 495 kts | 148° |
| 2026-04-28 13:31 | 47.59223 | 10.27112 | 33166 ft | 493 kts | 149° |
| 2026-04-28 13:31 | 47.53683 | 10.33131 | 33167 ft | 493 kts | 149° |
| 2026-04-28 13:32 | 47.48164 | 10.39136 | 33176 ft | 492 kts | 149° |
| 2026-04-28 13:32 | 47.42675 | 10.45125 | 33185 ft | 490 kts | 149° |
| 2026-04-28 13:33 | 47.37013 | 10.50665 | 33193 ft | 485 kts | 157° |
| 2026-04-28 13:33 | 47.31037 | 10.55255 | 33148 ft | 484 kts | 159° |
| 2026-04-28 13:34 | 47.25076 | 10.59818 | 33166 ft | 482 kts | 158° |
| 2026-04-28 13:34 | 47.19130 | 10.64466 | 33159 ft | 485 kts | 158° |
| 2026-04-28 13:35 | 47.13076 | 10.68553 | 33160 ft | 479 kts | 166° |
| 2026-04-28 13:35 | 47.06813 | 10.71851 | 33153 ft | 477 kts | 166° |
| 2026-04-28 13:36 | 47.00571 | 10.75147 | 33160 ft | 478 kts | 166° |
| 2026-04-28 13:36 | 46.94335 | 10.78639 | 33175 ft | 480 kts | 165° |
| 2026-04-28 13:37 | 46.88129 | 10.82206 | 33177 ft | 479 kts | 164° |
| 2026-04-28 13:37 | 46.81908 | 10.85739 | 33205 ft | 479 kts | 165° |
| 2026-04-28 13:38 | 46.75960 | 10.90241 | 33224 ft | 494 kts | 142° |
| 2026-04-28 13:38 | 46.71259 | 10.97681 | 33221 ft | 502 kts | 134° |
| 2026-04-28 13:39 | 46.66759 | 11.05436 | 33212 ft | 499 kts | 134° |
| 2026-04-28 13:39 | 46.62216 | 11.13041 | 33215 ft | 502 kts | 135° |
| 2026-04-28 13:40 | 46.57560 | 11.20601 | 33224 ft | 500 kts | 135° |
| 2026-04-28 13:40 | 46.52905 | 11.28113 | 33178 ft | 500 kts | 135° |
| 2026-04-28 13:41 | 46.48269 | 11.35619 | 33182 ft | 500 kts | 135° |
| 2026-04-28 13:41 | 46.43596 | 11.43123 | 33189 ft | 501 kts | 135° |
| 2026-04-28 13:42 | 46.38921 | 11.50628 | 33188 ft | 500 kts | 135° |
| 2026-04-28 13:42 | 46.34265 | 11.58084 | 33197 ft | 499 kts | 135° |
| 2026-04-28 13:43 | 46.29619 | 11.65554 | 33197 ft | 500 kts | 135° |
| 2026-04-28 13:43 | 46.24944 | 11.73016 | 33194 ft | 500 kts | 135° |
| 2026-04-28 13:44 | 46.20270 | 11.80466 | 33186 ft | 500 kts | 136° |
| 2026-04-28 13:44 | 46.15606 | 11.87839 | 33187 ft | 500 kts | 135° |
| 2026-04-28 13:45 | 46.10915 | 11.95239 | 33192 ft | 500 kts | 135° |
| 2026-04-28 13:45 | 46.06227 | 12.02644 | 33182 ft | 501 kts | 136° |
| 2026-04-28 13:46 | 46.01521 | 12.10065 | 33182 ft | 502 kts | 136° |
| 2026-04-28 13:46 | 45.96809 | 12.17484 | 33164 ft | 502 kts | 136° |
| 2026-04-28 13:47 | 45.92102 | 12.24882 | 33158 ft | 501 kts | 135° |
| 2026-04-28 13:47 | 45.87441 | 12.32336 | 33152 ft | 500 kts | 134° |
| 2026-04-28 13:48 | 45.82922 | 12.39835 | 33154 ft | 500 kts | 134° |
| 2026-04-28 13:48 | 45.78395 | 12.47415 | 33153 ft | 500 kts | 134° |
| 2026-04-28 13:49 | 45.73849 | 12.54977 | 33150 ft | 500 kts | 134° |
| 2026-04-28 13:49 | 45.69294 | 12.62510 | 33151 ft | 500 kts | 134° |
| 2026-04-28 13:50 | 45.64740 | 12.70025 | 33136 ft | 500 kts | 134° |
| 2026-04-28 13:50 | 45.60179 | 12.77527 | 33152 ft | 499 kts | 134° |
| 2026-04-28 13:51 | 45.55640 | 12.84924 | 33148 ft | 499 kts | 134° |
| 2026-04-28 13:51 | 45.51066 | 12.92377 | 33155 ft | 499 kts | 134° |
| 2026-04-28 13:52 | 45.46497 | 12.99826 | 33155 ft | 500 kts | 134° |
| 2026-04-28 13:52 | 45.41922 | 13.07282 | 33146 ft | 500 kts | 134° |
| 2026-04-28 13:53 | 45.37353 | 13.14707 | 33149 ft | 497 kts | 134° |
| 2026-04-28 13:53 | 45.32793 | 13.22112 | 33149 ft | 498 kts | 134° |
| 2026-04-28 13:54 | 45.28251 | 13.29455 | 33154 ft | 498 kts | 134° |
| 2026-04-28 13:54 | 45.23649 | 13.36814 | 33151 ft | 498 kts | 134° |
| 2026-04-28 13:55 | 45.19061 | 13.44183 | 33154 ft | 498 kts | 134° |
| 2026-04-28 13:55 | 45.14488 | 13.51541 | 33149 ft | 496 kts | 134° |
| 2026-04-28 13:56 | 45.09928 | 13.58871 | 33158 ft | 496 kts | 134° |
| 2026-04-28 13:56 | 45.05420 | 13.66100 | 33157 ft | 497 kts | 134° |
| 2026-04-28 13:57 | 45.00832 | 13.73422 | 33161 ft | 496 kts | 134° |
| 2026-04-28 13:57 | 44.96265 | 13.80654 | 33151 ft | 496 kts | 134° |
| 2026-04-28 13:58 | 44.91667 | 13.87948 | 33143 ft | 497 kts | 134° |
| 2026-04-28 13:58 | 44.87132 | 13.95330 | 33147 ft | 498 kts | 131° |
| 2026-04-28 13:59 | 44.82844 | 14.03013 | 33149 ft | 499 kts | 129° |
| 2026-04-28 13:59 | 44.78613 | 14.10684 | 33162 ft | 499 kts | 130° |
| 2026-04-28 14:00 | 44.74313 | 14.18342 | 33164 ft | 499 kts | 130° |
| 2026-04-28 14:00 | 44.69978 | 14.25979 | 33166 ft | 500 kts | 130° |
| 2026-04-28 14:01 | 44.65647 | 14.33610 | 33160 ft | 498 kts | 130° |
| 2026-04-28 14:01 | 44.61323 | 14.41224 | 33161 ft | 498 kts | 130° |
| 2026-04-28 14:02 | 44.56980 | 14.48791 | 33163 ft | 498 kts | 130° |
| 2026-04-28 14:02 | 44.52630 | 14.56359 | 33164 ft | 498 kts | 130° |
| 2026-04-28 14:03 | 44.48289 | 14.63922 | 33164 ft | 498 kts | 130° |
| 2026-04-28 14:03 | 44.43956 | 14.71467 | 33162 ft | 498 kts | 130° |
| 2026-04-28 14:04 | 44.40348 | 14.77737 | 33160 ft | 497 kts | 130° |
| 2026-04-28 14:04 | 44.35352 | 14.86395 | 33165 ft | 496 kts | 130° |
| 2026-04-28 14:05 | 44.31729 | 14.92606 | 33160 ft | 496 kts | 130° |
| 2026-04-28 14:05 | 44.27364 | 15.00077 | 33155 ft | 496 kts | 130° |
| 2026-04-28 14:06 | 44.23003 | 15.07552 | 33165 ft | 497 kts | 130° |
| 2026-04-28 14:06 | 44.18637 | 15.15035 | 33148 ft | 497 kts | 130° |
| 2026-04-28 14:07 | 44.14270 | 15.22501 | 33140 ft | 496 kts | 130° |
| 2026-04-28 14:07 | 44.09913 | 15.29940 | 33148 ft | 496 kts | 130° |
| 2026-04-28 14:08 | 44.05530 | 15.37349 | 33144 ft | 496 kts | 131° |
| 2026-04-28 14:08 | 44.01129 | 15.44758 | 33152 ft | 497 kts | 131° |
| 2026-04-28 14:09 | 43.96741 | 15.52162 | 33156 ft | 497 kts | 131° |
| 2026-04-28 14:09 | 43.92377 | 15.59523 | 33161 ft | 497 kts | 131° |
| 2026-04-28 14:10 | 43.87989 | 15.66909 | 33155 ft | 495 kts | 130° |
| 2026-04-28 14:10 | 43.83607 | 15.74274 | 33166 ft | 496 kts | 131° |
| 2026-04-28 14:11 | 43.79196 | 15.81615 | 33166 ft | 496 kts | 131° |
| 2026-04-28 14:11 | 43.74775 | 15.88944 | 33157 ft | 496 kts | 131° |
| 2026-04-28 14:12 | 43.70364 | 15.96270 | 33167 ft | 496 kts | 131° |
| 2026-04-28 14:12 | 43.65956 | 16.03593 | 33166 ft | 496 kts | 131° |
| 2026-04-28 14:13 | 43.61535 | 16.10922 | 33159 ft | 496 kts | 131° |
| 2026-04-28 14:13 | 43.57118 | 16.18228 | 33104 ft | 495 kts | 131° |
| 2026-04-28 14:14 | 43.54936 | 16.21847 | 33071 ft | 483 kts | 131° |
| 2026-04-28 14:14 | 43.52833 | 16.25350 | 33054 ft | 467 kts | 131° |
| 2026-04-28 14:14 | 43.48829 | 16.32189 | 33056 ft | 460 kts | 127° |
| 2026-04-28 14:15 | 43.45272 | 16.39590 | 33055 ft | 467 kts | 122° |
| 2026-04-28 14:15 | 43.41821 | 16.47234 | 32804 ft | 476 kts | 122° |
| 2026-04-28 14:16 | 43.40046 | 16.51137 | 32238 ft | 482 kts | 123° |
| 2026-04-28 14:16 | 43.38262 | 16.55019 | 31591 ft | 479 kts | 123° |
| 2026-04-28 14:16 | 43.36481 | 16.58862 | 30895 ft | 476 kts | 123° |
| 2026-04-28 14:16 | 43.34700 | 16.62679 | 30173 ft | 474 kts | 123° |
| 2026-04-28 14:17 | 43.32918 | 16.66486 | 29345 ft | 472 kts | 123° |
| 2026-04-28 14:17 | 43.31150 | 16.70259 | 28564 ft | 468 kts | 123° |
| 2026-04-28 14:17 | 43.29395 | 16.74004 | 27840 ft | 465 kts | 123° |
| 2026-04-28 14:17 | 43.27655 | 16.77722 | 27128 ft | 461 kts | 123° |
| 2026-04-28 14:18 | 43.25928 | 16.81407 | 26446 ft | 457 kts | 123° |
| 2026-04-28 14:18 | 43.24202 | 16.85050 | 25755 ft | 453 kts | 123° |
| 2026-04-28 14:18 | 43.22481 | 16.88668 | 25039 ft | 451 kts | 123° |
| 2026-04-28 14:18 | 43.20775 | 16.92264 | 24316 ft | 449 kts | 123° |
| 2026-04-28 14:19 | 43.19081 | 16.95850 | 23594 ft | 447 kts | 123° |
| 2026-04-28 14:19 | 43.17439 | 16.99340 | 22810 ft | 436 kts | 123° |
| 2026-04-28 14:19 | 43.15818 | 17.02791 | 22080 ft | 424 kts | 123° |
| 2026-04-28 14:19 | 43.14246 | 17.06141 | 21389 ft | 412 kts | 123° |
| 2026-04-28 14:20 | 43.12703 | 17.09384 | 20749 ft | 401 kts | 124° |
| 2026-04-28 14:20 | 43.11163 | 17.12509 | 20107 ft | 391 kts | 125° |
| 2026-04-28 14:20 | 43.09646 | 17.15544 | 19478 ft | 382 kts | 125° |
| 2026-04-28 14:20 | 43.08159 | 17.18510 | 18859 ft | 374 kts | 125° |
| 2026-04-28 14:21 | 43.06700 | 17.21422 | 18220 ft | 370 kts | 125° |
| 2026-04-28 14:21 | 43.05220 | 17.24387 | 17544 ft | 384 kts | 125° |
| 2026-04-28 14:21 | 43.03715 | 17.27417 | 16894 ft | 384 kts | 124° |
| 2026-04-28 14:21 | 43.02221 | 17.30431 | 16252 ft | 381 kts | 124° |
| 2026-04-28 14:22 | 43.00743 | 17.33421 | 15616 ft | 378 kts | 124° |
| 2026-04-28 14:22 | 42.99280 | 17.36400 | 14978 ft | 376 kts | 124° |
| 2026-04-28 14:22 | 42.97833 | 17.39362 | 14337 ft | 374 kts | 124° |
| 2026-04-28 14:22 | 42.96395 | 17.42315 | 13677 ft | 372 kts | 124° |
| 2026-04-28 14:23 | 42.94986 | 17.45205 | 12985 ft | 369 kts | 124° |
| 2026-04-28 14:23 | 42.93566 | 17.48107 | 12329 ft | 366 kts | 124° |
| 2026-04-28 14:23 | 42.92168 | 17.50957 | 11676 ft | 356 kts | 124° |
| 2026-04-28 14:23 | 42.90810 | 17.53734 | 11104 ft | 347 kts | 124° |
| 2026-04-28 14:24 | 42.89505 | 17.56464 | 10590 ft | 338 kts | 123° |
| 2026-04-28 14:24 | 42.88297 | 17.59120 | 10440 ft | 322 kts | 122° |
| 2026-04-28 14:24 | 42.87164 | 17.61673 | 10287 ft | 308 kts | 122° |
| 2026-04-28 14:24 | 42.86080 | 17.64126 | 10142 ft | 296 kts | 122° |
| 2026-04-28 14:25 | 42.85037 | 17.66479 | 10031 ft | 284 kts | 122° |
| 2026-04-28 14:25 | 42.84024 | 17.68742 | 9721 ft | 279 kts | 123° |
| 2026-04-28 14:25 | 42.83003 | 17.70993 | 9335 ft | 279 kts | 123° |
| 2026-04-28 14:25 | 42.81983 | 17.73242 | 8946 ft | 278 kts | 123° |
| 2026-04-28 14:26 | 42.80967 | 17.75474 | 8564 ft | 276 kts | 123° |
| 2026-04-28 14:26 | 42.79962 | 17.77685 | 8203 ft | 274 kts | 122° |
| 2026-04-28 14:26 | 42.78970 | 17.79887 | 7823 ft | 272 kts | 123° |
| 2026-04-28 14:26 | 42.77986 | 17.82072 | 7453 ft | 270 kts | 123° |
| 2026-04-28 14:27 | 42.76978 | 17.84234 | 7061 ft | 271 kts | 124° |
| 2026-04-28 14:27 | 42.75937 | 17.86377 | 6622 ft | 272 kts | 126° |
| 2026-04-28 14:27 | 42.74744 | 17.88356 | 6176 ft | 270 kts | 143° |
| 2026-04-28 14:27 | 42.73230 | 17.89790 | 5755 ft | 269 kts | 150° |
| 2026-04-28 14:28 | 42.71637 | 17.91124 | 5354 ft | 268 kts | 150° |
| 2026-04-28 14:28 | 42.70071 | 17.92458 | 5109 ft | 262 kts | 145° |
| 2026-04-28 14:28 | 42.68882 | 17.94291 | 4881 ft | 258 kts | 123° |
| 2026-04-28 14:28 | 42.68020 | 17.96402 | 4755 ft | 252 kts | 119° |
| 2026-04-28 14:29 | 42.67211 | 17.98481 | 4657 ft | 247 kts | 120° |
| 2026-04-28 14:29 | 42.66412 | 18.00554 | 4555 ft | 250 kts | 119° |
| 2026-04-28 14:29 | 42.65597 | 18.02706 | 4059 ft | 260 kts | 119° |
| 2026-04-28 14:29 | 42.64762 | 18.04908 | 3561 ft | 264 kts | 119° |
| 2026-04-28 14:30 | 42.63929 | 18.07088 | 3400 ft | 255 kts | 119° |
| 2026-04-28 14:30 | 42.63110 | 18.09217 | 3094 ft | 255 kts | 120° |
| 2026-04-28 14:30 | 42.62270 | 18.11331 | 2762 ft | 250 kts | 120° |
| 2026-04-28 14:30 | 42.61467 | 18.13366 | 2419 ft | 240 kts | 120° |
| 2026-04-28 14:31 | 42.60700 | 18.15302 | 2083 ft | 224 kts | 119° |
| 2026-04-28 14:31 | 42.59989 | 18.17090 | 1815 ft | 203 kts | 120° |
| 2026-04-28 14:31 | 42.59361 | 18.18688 | 1570 ft | 179 kts | 119° |
| 2026-04-28 14:31 | 42.58809 | 18.20084 | 1383 ft | 158 kts | 121° |
| 2026-04-28 14:32 | 42.58311 | 18.21349 | 1128 ft | 146 kts | 121° |
| 2026-04-28 14:32 | 42.57840 | 18.22549 | 949 ft | 143 kts | 121° |
| 2026-04-28 14:32 | 42.57369 | 18.23711 | 723 ft | 148 kts | 122° |
| 2026-04-28 14:32 | 42.56891 | 18.24934 | 561 ft | 146 kts | 120° |
| 2026-04-28 14:33 | 42.56431 | 18.26085 | 528 ft | 121 kts | 118° |
| 2026-04-28 14:33 | 42.56122 | 18.26851 | 530 ft | 75 kts | 118° |
| 2026-04-28 14:33 | 42.55964 | 18.27253 | 525 ft | 25 kts | 118° |
| 2026-04-28 14:33 | 42.55851 | 18.27334 | 522 ft | 13 kts | 174° |
| 2026-04-28 14:34 | 42.55774 | 18.27293 | 522 ft | 7 kts | 273° |
| 2026-04-28 14:34 | 42.55790 | 18.27231 | 523 ft | 6 kts | 298° |
| 2026-04-28 14:34 | 42.55812 | 18.27178 | 524 ft | 8 kts | 298° |
| 2026-04-28 14:35 | 42.55849 | 18.27083 | 524 ft | 16 kts | 297° |
| 2026-04-28 14:35 | 42.55909 | 18.26926 | 524 ft | 20 kts | 298° |
| 2026-04-28 14:35 | 42.55974 | 18.26758 | 524 ft | 20 kts | 297° |
| 2026-04-28 14:35 | 42.56040 | 18.26592 | 524 ft | 20 kts | 300° |
| 2026-04-28 14:36 | 42.56107 | 18.26424 | 524 ft | 20 kts | 298° |
| 2026-04-28 14:36 | 42.56143 | 18.26335 | 524 ft | 3 kts | 298° |
| 2026-04-28 14:36 | 42.56153 | 18.26308 | 524 ft | 3 kts | 288° |
| 2026-04-28 14:36 | 42.56144 | 18.26285 | 523 ft | 4 kts | 221° |
| 2026-04-28 14:37 | 42.56115 | 18.26260 | 522 ft | 2 kts | 207° |
| 2026-04-28 14:37 | 42.56109 | 18.26255 | 522 ft | 0 kts | 208° |